createdAt,value
2019-01-11T00:00:40.925Z,31.40
2019-01-11T00:03:08.165Z,22.93
2019-01-11T00:05:35.427Z,42.80
2019-01-11T00:08:02.671Z,35.27
2019-01-11T00:10:29.912Z,34.27
2019-01-11T00:12:57.178Z,44.67
2019-01-11T00:15:24.440Z,35.40
2019-01-11T00:17:52.330Z,34.80
2019-01-11T00:20:19.657Z,42.20
2019-01-11T00:22:46.927Z,38.27
2019-01-11T00:25:14.180Z,42.80
2019-01-11T00:27:41.424Z,42.80
2019-01-11T00:30:08.802Z,35.83
2019-01-11T00:32:36.054Z,38.93
2019-01-11T00:35:03.583Z,36.13
2019-01-11T00:37:30.931Z,42.03
2019-01-11T00:39:58.428Z,42.23
2019-01-11T00:42:25.713Z,45.53
2019-01-11T00:44:53.079Z,35.53
2019-01-11T00:47:20.335Z,40.13
2019-01-11T00:49:47.865Z,42.00
2019-01-11T00:52:15.214Z,41.43
2019-01-11T00:54:42.490Z,36.57
2019-01-11T00:57:09.745Z,38.00
2019-01-11T00:59:37.270Z,35.13
2019-01-11T01:02:04.572Z,33.97
2019-01-11T01:04:31.912Z,36.17
2019-01-11T01:06:59.207Z,36.70
2019-01-11T01:09:26.482Z,32.67
2019-01-11T01:11:53.720Z,35.40
2019-01-11T01:14:21.199Z,35.57
2019-01-11T01:16:48.539Z,43.30
2019-01-11T01:19:19.990Z,34.40
2019-01-11T01:21:44.963Z,33.20
2019-01-11T01:24:12.196Z,35.33
2019-01-11T01:26:39.468Z,34.97
2019-01-11T01:29:07.067Z,38.70
2019-01-11T01:31:34.324Z,34.57
2019-01-11T01:34:01.823Z,40.60
2019-01-11T01:36:29.363Z,43.90
2019-01-11T01:38:56.694Z,36.70
2019-01-11T01:41:24.480Z,37.27
2019-01-11T01:43:51.723Z,40.27
2019-01-11T01:46:18.972Z,38.10
2019-01-11T01:48:46.499Z,45.83
2019-01-11T01:51:13.770Z,37.97
2019-01-11T01:53:40.928Z,27.37
2019-01-11T01:56:08.250Z,37.80
2019-01-11T01:58:35.636Z,44.50
2019-01-11T02:01:02.990Z,41.53
2019-01-11T02:03:30.495Z,51.83
2019-01-11T02:05:58.008Z,44.93
2019-01-11T02:08:25.292Z,44.97
2019-01-11T02:10:52.569Z,44.53
2019-01-11T02:13:19.799Z,41.17
2019-01-11T02:15:47.321Z,50.53
2019-01-11T02:18:14.575Z,46.73
2019-01-11T02:20:41.932Z,53.57
2019-01-11T02:23:09.225Z,47.83
2019-01-11T02:25:36.562Z,54.80
2019-01-11T02:28:03.911Z,51.67
2019-01-11T02:30:31.168Z,41.70
2019-01-11T02:32:58.448Z,44.27
2019-01-11T02:35:25.796Z,51.40
2019-01-11T02:37:53.142Z,45.90
2019-01-11T02:40:20.498Z,42.67
2019-01-11T02:42:48.033Z,48.67
2019-01-11T02:45:16.537Z,54.40
2019-01-11T02:47:43.876Z,53.30
2019-01-11T02:50:11.554Z,50.93
2019-01-11T02:52:38.806Z,57.17
2019-01-11T02:55:06.431Z,54.57
2019-01-11T02:57:34.179Z,53.30
2019-01-11T03:00:01.994Z,48.67
2019-01-11T03:02:29.310Z,55.87
2019-01-11T03:04:56.855Z,57.77
2019-01-11T03:07:24.103Z,62.23
2019-01-11T03:09:51.348Z,61.37
2019-01-11T03:12:18.615Z,49.80
2019-01-11T03:14:45.866Z,59.13
2019-01-11T03:17:13.216Z,58.67
2019-01-11T03:19:47.472Z,65.20
2019-01-11T03:22:09.767Z,68.33
2019-01-11T03:24:37.003Z,58.90
2019-01-11T03:27:04.251Z,43.67
2019-01-11T03:29:31.619Z,60.50
2019-01-11T03:31:59.003Z,47.57
2019-01-11T03:34:26.334Z,55.20
2019-01-11T03:36:53.599Z,54.77
2019-01-11T03:39:20.862Z,58.33
2019-01-11T03:41:51.404Z,47.23
2019-01-11T03:44:18.855Z,47.73
2019-01-11T03:46:46.024Z,51.03
2019-01-11T03:49:13.279Z,46.83
2019-01-11T03:51:40.776Z,48.13
2019-01-11T03:54:08.030Z,52.40
2019-01-11T03:56:35.605Z,49.30
2019-01-11T03:59:03.209Z,45.93
2019-01-11T04:01:30.710Z,50.33
2019-01-11T04:03:58.082Z,77.77
2019-01-11T04:06:26.163Z,53.97
2019-01-11T04:08:53.393Z,53.03
2019-01-11T04:11:20.675Z,53.40
2019-01-11T04:13:48.037Z,49.33
2019-01-11T04:16:15.282Z,52.93
2019-01-11T04:18:57.411Z,51.00
2019-01-11T04:21:24.700Z,51.70
2019-01-11T04:23:52.334Z,62.27
2019-01-11T04:26:19.698Z,57.77
2019-01-11T04:28:47.022Z,61.07
2019-01-11T04:31:14.565Z,50.73
2019-01-11T04:33:42.017Z,61.37
2019-01-11T04:36:09.508Z,56.57
2019-01-11T04:38:36.752Z,56.73
2019-01-11T04:41:04.021Z,64.37
2019-01-11T04:43:31.791Z,63.87
2019-01-11T04:45:59.027Z,64.73
2019-01-11T04:48:26.396Z,67.17
2019-01-11T04:50:53.718Z,70.33
2019-01-11T04:53:20.975Z,62.70
2019-01-11T04:55:48.248Z,65.77
2019-01-11T04:58:15.492Z,69.80
2019-01-11T05:00:42.738Z,68.37
2019-01-11T05:03:10.006Z,73.53
2019-01-11T05:05:37.287Z,73.77
2019-01-11T05:08:04.538Z,76.93
2019-01-11T05:10:32.058Z,65.73
2019-01-11T05:13:15.201Z,77.30
2019-01-11T05:15:42.779Z,72.77
2019-01-11T05:18:10.283Z,84.00
2019-01-11T05:20:37.565Z,91.53
2019-01-11T05:23:04.942Z,76.63
2019-01-11T05:25:32.197Z,82.80
2019-01-11T05:27:59.555Z,91.80
2019-01-11T05:30:26.812Z,97.53
2019-01-11T05:32:54.351Z,86.43
2019-01-11T05:35:21.878Z,97.37
2019-01-11T05:37:49.102Z,92.73
2019-01-11T05:40:17.131Z,75.83
2019-01-11T05:42:44.638Z,88.83
2019-01-11T05:45:11.878Z,90.93
2019-01-11T05:47:39.159Z,96.37
2019-01-11T05:50:07.411Z,90.23
2019-01-11T05:52:34.898Z,81.20
2019-01-11T05:55:02.532Z,74.07
2019-01-11T05:57:29.777Z,87.73
2019-01-11T05:59:57.060Z,89.97
2019-01-11T06:02:24.322Z,86.53
2019-01-11T06:05:01.981Z,78.67
2019-01-11T06:07:48.850Z,84.20
2019-01-11T06:10:16.138Z,76.97
2019-01-11T06:12:43.391Z,83.10
2019-01-11T06:15:10.742Z,82.23
2019-01-11T06:17:38.028Z,71.60
2019-01-11T06:20:06.788Z,81.53
2019-01-11T06:22:34.206Z,70.57
2019-01-11T06:25:01.578Z,84.07
2019-01-11T06:27:29.015Z,91.77
2019-01-11T06:29:56.283Z,100.57
2019-01-11T06:32:23.571Z,88.60
2019-01-11T06:34:50.923Z,85.70
2019-01-11T06:37:18.278Z,65.23
2019-01-11T06:39:45.523Z,66.43
2019-01-11T06:42:24.902Z,70.20
2019-01-11T06:44:52.422Z,73.90
2019-01-11T06:47:19.789Z,73.00
2019-01-11T06:49:47.562Z,74.03
2019-01-11T06:52:14.811Z,72.57
2019-01-11T06:54:42.360Z,89.40
2019-01-11T06:57:09.920Z,83.20
2019-01-11T06:59:37.193Z,89.90
2019-01-11T07:02:04.528Z,88.70
2019-01-11T07:04:31.805Z,81.10
2019-01-11T07:06:59.427Z,78.87
2019-01-11T07:09:26.940Z,77.40
2019-01-11T07:11:54.207Z,89.73
2019-01-11T07:14:21.726Z,89.00
2019-01-11T07:16:49.268Z,69.30
2019-01-11T07:19:16.828Z,71.27
2019-01-11T07:21:44.356Z,76.80
2019-01-11T07:24:11.675Z,81.53
2019-01-11T07:26:39.219Z,76.17
2019-01-11T07:29:06.518Z,71.93
2019-01-11T07:31:34.532Z,65.13
2019-01-11T07:34:02.779Z,73.43
2019-01-11T07:36:32.488Z,72.50
2019-01-11T07:38:59.757Z,79.53
2019-01-11T07:41:27.109Z,69.10
2019-01-11T07:43:54.441Z,73.63
2019-01-11T07:46:21.771Z,63.10
2019-01-11T07:48:49.113Z,65.23
2019-01-11T07:51:16.645Z,62.93
2019-01-11T07:53:43.911Z,62.97
2019-01-11T07:56:11.166Z,64.43
2019-01-11T07:58:39.200Z,62.47
2019-01-11T08:01:06.547Z,63.17
2019-01-11T08:03:33.952Z,55.60
2019-01-11T08:06:01.228Z,60.33
2019-01-11T08:08:28.480Z,64.57
2019-01-11T08:10:55.720Z,68.40
2019-01-11T08:13:22.969Z,61.77
2019-01-11T08:15:50.496Z,58.20
2019-01-11T08:18:17.758Z,51.60
2019-01-11T08:20:45.020Z,51.43
2019-01-11T08:23:31.762Z,51.43
2019-01-11T08:28:57.761Z,60.00
2019-01-11T08:31:25.037Z,58.63
2019-01-11T08:33:52.271Z,46.27
2019-01-11T08:36:19.640Z,52.07
2019-01-11T08:38:47.154Z,41.67
2019-01-11T08:41:14.689Z,36.10
2019-01-11T08:43:41.926Z,34.97
2019-01-11T08:46:09.196Z,38.47
2019-01-11T08:48:36.467Z,37.37
2019-01-11T08:51:03.776Z,35.33
2019-01-11T08:53:31.053Z,36.73
2019-01-11T08:55:58.304Z,38.50
2019-01-11T08:58:25.631Z,37.53
2019-01-11T09:00:52.903Z,36.17
2019-01-11T09:03:20.163Z,38.77
2019-01-11T09:05:47.417Z,35.33
2019-01-11T09:08:14.806Z,31.43
2019-01-11T09:10:42.085Z,33.43
2019-01-11T09:13:09.339Z,29.63
2019-01-11T09:15:36.707Z,35.10
2019-01-11T09:18:13.754Z,32.93
2019-01-11T09:20:41.164Z,32.07
2019-01-11T09:23:08.411Z,27.83
2019-01-11T09:25:36.045Z,35.47
2019-01-11T09:28:03.320Z,35.53
2019-01-11T09:30:30.651Z,32.90
2019-01-11T09:32:57.923Z,37.17
2019-01-11T09:35:25.262Z,34.57
2019-01-11T09:37:52.500Z,36.57
2019-01-11T09:40:20.051Z,27.93
2019-01-11T09:42:47.424Z,36.87
2019-01-11T09:45:14.688Z,26.73
2019-01-11T09:47:42.017Z,42.10
2019-01-11T09:50:09.565Z,27.93
2019-01-11T09:52:37.063Z,35.70
2019-01-11T09:55:04.885Z,25.17
2019-01-11T09:57:32.280Z,30.80
2019-01-11T09:59:59.542Z,26.73
2019-01-11T10:02:37.464Z,32.03
2019-01-11T10:05:05.667Z,25.63
2019-01-11T10:07:32.949Z,27.47
2019-01-11T10:10:00.459Z,26.27
2019-01-11T10:12:27.694Z,36.40
2019-01-11T10:14:54.976Z,35.40
2019-01-11T10:17:22.231Z,32.60
2019-01-11T10:19:49.484Z,32.07
2019-01-11T10:22:16.771Z,28.53
2019-01-11T10:24:44.006Z,28.03
2019-01-11T10:27:11.280Z,25.70
2019-01-11T10:29:38.532Z,33.33
2019-01-11T10:32:06.912Z,33.03
2019-01-11T10:34:34.703Z,28.50
2019-01-11T10:37:02.291Z,40.23
2019-01-11T10:39:29.549Z,24.23
2019-01-11T10:41:59.080Z,26.50
2019-01-11T10:44:26.440Z,28.80
2019-01-11T10:46:53.955Z,30.00
2019-01-11T10:49:21.204Z,33.73
2019-01-11T10:51:48.464Z,24.23
2019-01-11T10:54:26.717Z,28.47
2019-01-11T10:56:54.282Z,24.33
2019-01-11T10:59:21.528Z,25.47
2019-01-11T11:01:48.856Z,30.93
2019-01-11T11:04:16.380Z,33.13
2019-01-11T11:06:43.622Z,29.20
2019-01-11T11:09:10.877Z,31.70
2019-01-11T11:11:38.152Z,25.97
2019-01-11T11:14:05.402Z,29.80
2019-01-11T11:16:33.114Z,38.23
2019-01-11T11:19:00.416Z,29.97
2019-01-11T11:21:27.671Z,30.83
2019-01-11T11:23:55.226Z,25.10
2019-01-11T11:26:22.483Z,32.93
2019-01-11T11:28:50.024Z,24.37
2019-01-11T11:31:20.562Z,24.13
2019-01-11T11:33:48.191Z,30.20
2019-01-11T11:36:15.499Z,32.87
2019-01-11T11:38:43.078Z,23.07
2019-01-11T11:41:10.482Z,26.63
2019-01-11T11:43:37.737Z,26.00
2019-01-11T11:46:05.075Z,21.90
2019-01-11T11:48:32.327Z,22.53
2019-01-11T11:50:59.569Z,21.13
2019-01-11T11:53:26.839Z,15.50
2019-01-11T11:55:54.190Z,27.27
2019-01-11T11:58:21.810Z,21.53
2019-01-11T12:00:49.450Z,21.30
2019-01-11T12:03:16.737Z,25.07
2019-01-11T12:05:44.014Z,19.73
2019-01-11T12:08:11.419Z,14.87
2019-01-11T12:10:38.664Z,13.90
2019-01-11T12:13:05.936Z,13.87
2019-01-11T12:15:33.470Z,10.73
2019-01-11T12:18:00.731Z,12.30
2019-01-11T12:20:33.155Z,8.23
2019-01-11T12:23:00.667Z,7.63
2019-01-11T12:25:27.939Z,10.47
2019-01-11T12:27:55.217Z,9.50
2019-01-11T12:30:22.575Z,10.50
2019-01-11T12:32:50.142Z,6.60
2019-01-11T12:35:17.504Z,8.70
2019-01-11T12:37:44.765Z,8.40
2019-01-11T12:40:12.071Z,4.10
2019-01-11T12:42:39.617Z,7.30
2019-01-11T12:45:07.882Z,6.60
2019-01-11T12:47:35.299Z,8.87
2019-01-11T12:50:02.670Z,9.77
2019-01-11T12:52:29.928Z,6.87
2019-01-11T12:54:57.212Z,6.30
2019-01-11T12:57:24.452Z,5.27
2019-01-11T12:59:52.260Z,8.07
2019-01-11T13:02:19.630Z,9.37
2019-01-11T13:04:47.138Z,5.57
2019-01-11T13:07:14.429Z,8.80
2019-01-11T13:09:41.871Z,6.53
2019-01-11T13:12:09.218Z,8.83
2019-01-11T13:14:36.483Z,11.37
2019-01-11T13:17:03.732Z,10.57
2019-01-11T13:19:31.010Z,8.70
2019-01-11T13:22:00.625Z,8.53
2019-01-11T13:24:27.394Z,12.50
2019-01-11T13:26:54.671Z,7.83
2019-01-11T13:29:22.203Z,9.07
2019-01-11T13:31:49.454Z,8.03
2019-01-11T13:34:16.709Z,10.30
2019-01-11T13:36:43.960Z,15.07
2019-01-11T13:39:12.960Z,6.37
2019-01-11T13:41:40.319Z,8.20
2019-01-11T13:44:07.931Z,4.40
2019-01-11T13:46:35.288Z,10.90
2019-01-11T13:49:02.964Z,9.57
2019-01-11T13:51:30.249Z,7.23
2019-01-11T13:53:57.507Z,6.90
2019-01-11T13:56:24.773Z,10.93
2019-01-11T13:58:52.054Z,9.07
2019-01-11T14:01:19.619Z,9.07
2019-01-11T14:03:47.225Z,9.73
2019-01-11T14:06:14.574Z,8.63
2019-01-11T14:08:42.114Z,9.63
2019-01-11T14:11:09.629Z,6.50
2019-01-11T14:13:36.923Z,6.77
2019-01-11T14:16:04.207Z,21.30
2019-01-11T14:18:31.459Z,15.37
2019-01-11T14:20:58.969Z,9.17
2019-01-11T14:23:26.237Z,9.60
2019-01-11T14:25:53.493Z,16.70
2019-01-11T14:28:20.749Z,11.80
2019-01-11T14:30:48.341Z,16.40
2019-01-11T14:33:15.860Z,11.30
2019-01-11T14:35:43.126Z,13.13
2019-01-11T14:38:10.764Z,10.60
2019-01-11T14:43:39.429Z,8.73
2019-01-11T14:46:26.456Z,8.93
2019-01-11T14:48:53.726Z,14.53
2019-01-11T14:51:21.605Z,15.50
2019-01-11T14:53:48.973Z,9.93
2019-01-11T14:56:16.327Z,13.77
2019-01-11T14:58:43.970Z,6.90
2019-01-11T15:01:11.269Z,15.57
2019-01-11T15:03:38.513Z,9.77
2019-01-11T15:06:05.893Z,10.97
2019-01-11T15:08:33.511Z,8.97
2019-01-11T15:11:00.785Z,19.97
2019-01-11T15:13:28.058Z,13.30
2019-01-11T15:15:55.588Z,7.27
2019-01-11T15:18:42.622Z,12.03
2019-01-11T15:21:09.890Z,8.13
2019-01-11T15:23:38.172Z,10.23
2019-01-11T15:26:12.798Z,9.43
2019-01-11T15:28:43.549Z,9.90
2019-01-11T15:31:10.907Z,9.13
2019-01-11T15:33:38.176Z,10.07
2019-01-11T15:36:05.778Z,9.20
2019-01-11T15:38:33.447Z,10.20
2019-01-11T15:41:00.810Z,15.87
2019-01-11T15:43:28.351Z,13.93
2019-01-11T15:46:02.331Z,13.23
2019-01-11T15:48:40.096Z,19.87
2019-01-11T15:51:07.517Z,8.83
2019-01-11T15:53:35.621Z,6.57
2019-01-11T15:56:03.519Z,7.87
2019-01-11T15:58:30.876Z,4.53
2019-01-11T16:00:58.196Z,13.53
2019-01-11T16:03:26.065Z,12.90
2019-01-11T16:06:11.371Z,4.87
2019-01-11T16:08:53.923Z,8.20
2019-01-11T16:11:37.386Z,3.77
2019-01-11T16:14:27.587Z,5.57
2019-01-11T16:17:00.121Z,6.30
2019-01-11T16:19:27.499Z,9.53
2019-01-11T16:21:56.003Z,3.60
2019-01-11T16:24:23.495Z,9.53
2019-01-11T16:26:51.116Z,8.00
2019-01-11T16:29:18.364Z,6.40
2019-01-11T16:31:45.797Z,6.50
2019-01-11T16:34:13.144Z,7.20
2019-01-11T16:36:40.466Z,5.50
2019-01-11T16:39:08.105Z,4.80
2019-01-11T16:41:35.485Z,11.33
2019-01-11T16:44:02.753Z,5.27
2019-01-11T16:46:30.031Z,5.23
2019-01-11T16:48:57.373Z,10.17
2019-01-11T16:51:24.624Z,7.33
2019-01-11T16:53:52.306Z,10.70
2019-01-11T16:56:19.933Z,8.57
2019-01-11T16:58:47.303Z,5.90
2019-01-11T17:01:15.240Z,9.40
2019-01-11T17:03:42.607Z,13.43
2019-01-11T17:06:09.934Z,12.90
2019-01-11T17:08:37.448Z,12.83
2019-01-11T17:11:04.881Z,14.17
2019-01-11T17:13:51.591Z,12.77
2019-01-11T17:16:18.870Z,10.97
2019-01-11T17:18:46.378Z,8.83
2019-01-11T17:21:13.656Z,10.17
2019-01-11T17:23:41.170Z,8.90
2019-01-11T17:26:08.419Z,13.60
2019-01-11T17:28:35.778Z,10.37
2019-01-11T17:31:03.046Z,14.13
2019-01-11T17:33:30.290Z,10.83
2019-01-11T17:35:57.833Z,11.00
2019-01-11T17:38:25.095Z,5.93
2019-01-11T17:40:52.435Z,15.50
2019-01-11T17:43:19.732Z,12.37
2019-01-11T17:45:46.988Z,9.97
2019-01-11T17:48:14.289Z,13.20
2019-01-11T17:50:41.542Z,11.00
2019-01-11T17:53:08.870Z,13.57
2019-01-11T17:55:36.411Z,12.40
2019-01-11T17:58:03.666Z,15.83
2019-01-11T18:00:30.931Z,14.10
2019-01-11T18:02:58.176Z,9.33
2019-01-11T18:05:25.703Z,12.67
2019-01-11T18:07:53.254Z,13.03
2019-01-11T18:10:20.777Z,15.70
2019-01-11T18:12:48.336Z,11.83
2019-01-11T18:15:16.752Z,9.30
2019-01-11T18:17:44.016Z,9.10
2019-01-11T18:20:13.000Z,11.13
2019-01-11T18:22:40.275Z,14.33
2019-01-11T18:25:07.608Z,12.13
2019-01-11T18:27:35.264Z,10.53
2019-01-11T18:30:03.668Z,7.47
2019-01-11T18:32:30.937Z,6.00
2019-01-11T18:34:58.495Z,6.97
2019-01-11T18:37:25.832Z,4.40
2019-01-11T18:39:57.725Z,7.90
2019-01-11T18:42:22.537Z,10.83
2019-01-11T18:44:49.894Z,6.07
2019-01-11T18:47:17.258Z,8.33
2019-01-11T18:49:44.711Z,9.10
2019-01-11T18:52:12.071Z,6.87
2019-01-11T18:54:39.348Z,9.40
2019-01-11T18:57:06.522Z,10.37
2019-01-11T18:59:33.868Z,7.17
2019-01-11T19:02:01.507Z,9.43
2019-01-11T19:04:28.800Z,6.97
2019-01-11T19:06:56.143Z,9.47
2019-01-11T19:09:23.515Z,9.20
2019-01-11T19:11:51.042Z,12.97
2019-01-11T19:14:18.395Z,14.70
2019-01-11T19:16:45.663Z,11.67
2019-01-11T19:19:13.167Z,12.23
2019-01-11T19:21:40.442Z,12.87
2019-01-11T19:24:07.717Z,8.87
2019-01-11T19:26:35.446Z,9.27
2019-01-11T19:29:02.985Z,13.30
2019-01-11T19:31:30.255Z,7.17
2019-01-11T19:33:57.792Z,6.20
2019-01-11T19:36:25.439Z,7.37
2019-01-11T19:38:52.694Z,4.83
2019-01-11T19:41:20.120Z,5.33
2019-01-11T19:43:47.831Z,8.03
2019-01-11T19:46:15.099Z,3.40
2019-01-11T19:48:42.560Z,3.90
2019-01-11T19:51:09.901Z,2.40
2019-01-11T19:53:37.263Z,4.67
2019-01-11T19:56:04.677Z,6.13
2019-01-11T19:58:32.290Z,9.80
2019-01-11T20:00:59.667Z,7.57
2019-01-11T20:03:27.136Z,9.93
2019-01-11T20:05:54.498Z,14.63
2019-01-11T20:08:22.325Z,8.50
2019-01-11T20:10:49.680Z,4.60
2019-01-11T20:13:17.779Z,7.53
2019-01-11T20:15:45.167Z,2.53
2019-01-11T20:18:12.522Z,4.20
2019-01-11T20:20:39.864Z,10.17
2019-01-11T20:23:07.243Z,4.50
2019-01-11T20:25:34.546Z,3.20
2019-01-11T20:28:01.878Z,2.13
2019-01-11T20:30:29.271Z,9.50
2019-01-11T20:32:56.782Z,7.73
2019-01-11T20:35:24.172Z,6.87
2019-01-11T20:37:51.710Z,5.40
2019-01-11T20:40:19.223Z,6.47
2019-01-11T20:42:46.777Z,4.83
2019-01-11T20:45:14.947Z,4.53
2019-01-11T20:47:42.290Z,4.80
2019-01-11T20:50:10.964Z,3.27
2019-01-11T20:52:38.400Z,3.40
2019-01-11T20:55:05.736Z,5.50
2019-01-11T20:57:33.049Z,6.50
2019-01-11T21:00:00.519Z,9.60
2019-01-11T21:02:27.970Z,6.30
2019-01-11T21:04:55.999Z,5.00
2019-01-11T21:07:23.596Z,6.57
2019-01-11T21:09:51.069Z,6.67
2019-01-11T21:12:18.430Z,4.80
2019-01-11T21:14:45.860Z,5.63
2019-01-11T21:17:13.563Z,11.37
2019-01-11T21:19:40.892Z,8.37
2019-01-11T21:22:08.435Z,8.27
2019-01-11T21:24:35.893Z,6.30
2019-01-11T21:27:03.180Z,8.67
2019-01-11T21:29:30.451Z,5.73
2019-01-11T21:31:57.725Z,7.50
2019-01-11T21:34:24.991Z,7.17
2019-01-11T21:36:52.618Z,3.13
2019-01-11T21:39:19.997Z,4.30
2019-01-11T21:41:47.301Z,7.10
2019-01-11T21:44:14.998Z,6.20
2019-01-11T21:46:42.267Z,3.27
2019-01-11T21:49:09.516Z,6.73
2019-01-11T21:51:36.834Z,4.40
2019-01-11T21:54:04.306Z,5.10
2019-01-11T21:56:31.763Z,5.60
2019-01-11T21:58:59.151Z,7.57
2019-01-11T22:01:26.489Z,3.43
2019-01-11T22:03:53.867Z,8.10
2019-01-11T22:06:21.153Z,3.90
2019-01-11T22:08:48.679Z,6.53
2019-01-11T22:11:15.949Z,4.80
2019-01-11T22:13:43.212Z,3.17
2019-01-11T22:16:10.465Z,3.83
2019-01-11T22:18:37.849Z,3.40
2019-01-11T22:21:05.027Z,8.17
2019-01-11T22:23:32.383Z,1.93
2019-01-11T22:25:59.763Z,4.33
2019-01-11T22:28:27.296Z,4.10
2019-01-11T22:30:54.662Z,10.67
2019-01-11T22:33:22.042Z,4.10
2019-01-11T22:35:49.548Z,8.13
2019-01-11T22:38:17.039Z,9.77
2019-01-11T22:40:44.330Z,6.20
2019-01-11T22:43:11.566Z,9.50
2019-01-11T22:45:39.154Z,6.20
2019-01-11T22:48:06.479Z,7.27
2019-01-11T22:50:34.068Z,5.03
2019-01-11T22:53:01.402Z,6.83
2019-01-11T22:55:28.674Z,4.47
2019-01-11T22:57:55.914Z,5.87
2019-01-11T23:00:41.527Z,3.17
2019-01-11T23:03:13.422Z,3.83
2019-01-11T23:05:40.654Z,5.13
2019-01-11T23:08:09.485Z,5.57
2019-01-11T23:10:52.081Z,8.60
2019-01-11T23:13:19.613Z,8.33
2019-01-11T23:15:51.600Z,7.63
2019-01-11T23:18:22.833Z,5.27
2019-01-11T23:20:51.586Z,7.30
2019-01-11T23:23:18.954Z,8.33
2019-01-11T23:25:46.501Z,3.73
2019-01-11T23:28:14.048Z,3.63
2019-01-11T23:30:41.367Z,8.57
2019-01-11T23:33:08.830Z,7.90
2019-01-11T23:35:36.116Z,7.30
2019-01-11T23:38:03.390Z,3.30
2019-01-11T23:40:30.772Z,8.80
2019-01-11T23:42:58.118Z,6.77
2019-01-11T23:45:25.490Z,5.70
2019-01-11T23:47:52.737Z,6.07
2019-01-11T23:50:20.107Z,8.20
2019-01-11T23:52:47.380Z,5.30
2019-01-11T23:55:14.636Z,4.30
2019-01-11T23:57:41.908Z,6.60
